createdAt,value
2022-09-06T00:01:22.214Z,12.13
2022-09-06T00:03:49.607Z,12.23
2022-09-06T00:06:18.434Z,13.10
2022-09-06T00:08:46.383Z,13.10
2022-09-06T00:11:14.648Z,12.63
2022-09-06T00:13:41.391Z,12.77
2022-09-06T00:16:10.976Z,12.30
2022-09-06T00:18:37.904Z,13.07
2022-09-06T00:21:14.475Z,12.52
2022-09-06T00:23:41.061Z,12.77
2022-09-06T00:26:07.594Z,12.68
2022-09-06T00:28:34.142Z,12.40
2022-09-06T00:31:14.757Z,12.88
2022-09-06T00:33:41.572Z,11.82
2022-09-06T00:36:09.000Z,12.63
2022-09-06T00:38:36.118Z,13.13
2022-09-06T00:41:03.285Z,12.75
2022-09-06T00:43:29.952Z,12.73
2022-09-06T00:45:57.286Z,13.10
2022-09-06T00:48:24.504Z,12.35
2022-09-06T00:50:55.799Z,12.85
2022-09-06T00:53:22.716Z,12.55
2022-09-06T00:55:49.702Z,12.98
2022-09-06T00:58:16.347Z,12.55
2022-09-06T01:00:44.606Z,13.05
2022-09-06T01:03:12.591Z,11.93
2022-09-06T01:06:06.317Z,12.32
2022-09-06T01:08:52.399Z,11.93
2022-09-06T01:11:54.486Z,12.80
2022-09-06T01:14:38.141Z,13.10
2022-09-06T01:17:33.030Z,11.95
2022-09-06T01:20:09.623Z,12.70
2022-09-06T01:22:51.361Z,12.90
2022-09-06T01:25:45.199Z,12.65
2022-09-06T01:28:23.941Z,13.02
2022-09-06T01:31:22.473Z,12.30
2022-09-06T01:33:48.952Z,11.57
2022-09-06T01:36:20.455Z,12.32
2022-09-06T01:38:46.937Z,11.93
2022-09-06T01:41:13.497Z,11.75
2022-09-06T01:43:45.989Z,12.10
2022-09-06T01:46:12.513Z,11.35
2022-09-06T01:48:47.718Z,12.32
2022-09-06T01:51:31.384Z,11.73
2022-09-06T01:54:43.177Z,12.55
2022-09-06T01:57:22.658Z,11.70
2022-09-06T02:00:10.686Z,12.02
2022-09-06T02:02:53.561Z,11.55
2022-09-06T02:05:36.036Z,11.52
2022-09-06T02:08:11.346Z,11.20
2022-09-06T02:10:54.977Z,11.90
2022-09-06T02:13:25.526Z,12.07
2022-09-06T02:16:01.179Z,12.82
2022-09-06T02:18:34.095Z,12.00
2022-09-06T02:21:03.020Z,12.55
2022-09-06T02:23:35.762Z,12.35
2022-09-06T02:26:17.553Z,11.98
2022-09-06T02:28:44.323Z,12.02
2022-09-06T02:31:18.267Z,12.70
2022-09-06T02:33:46.419Z,12.05
2022-09-06T02:36:15.788Z,12.73
2022-09-06T02:38:44.474Z,12.05
2022-09-06T02:41:12.204Z,11.65
2022-09-06T02:43:38.988Z,11.73
2022-09-06T02:46:05.731Z,12.80
2022-09-06T02:48:32.257Z,12.23
2022-09-06T02:51:03.130Z,12.10
2022-09-06T02:53:29.654Z,12.60
2022-09-06T02:55:56.963Z,12.13
2022-09-06T02:58:24.434Z,12.38
2022-09-06T03:00:54.462Z,11.30
2022-09-06T03:03:22.286Z,12.05
2022-09-06T03:05:52.703Z,11.93
2022-09-06T03:08:20.740Z,12.00
2022-09-06T03:10:56.154Z,12.18
2022-09-06T03:13:24.232Z,11.90
2022-09-06T03:15:56.506Z,11.98
2022-09-06T03:18:28.039Z,12.43
2022-09-06T03:20:55.899Z,11.82
2022-09-06T03:23:25.182Z,11.60
2022-09-06T03:25:52.135Z,11.45
2022-09-06T03:28:19.862Z,11.48
2022-09-06T03:30:48.596Z,10.80
2022-09-06T03:33:15.588Z,12.00
2022-09-06T03:35:53.985Z,11.13
2022-09-06T03:38:21.467Z,11.73
2022-09-06T03:40:49.023Z,10.55
2022-09-06T03:43:17.293Z,11.60
2022-09-06T03:46:02.657Z,10.80
2022-09-06T03:48:30.054Z,11.57
2022-09-06T03:50:58.671Z,10.93
2022-09-06T03:53:27.483Z,11.85
2022-09-06T03:55:57.502Z,11.20
2022-09-06T03:58:25.390Z,10.27
2022-09-06T04:01:07.674Z,11.25
2022-09-06T04:03:35.254Z,11.02
2022-09-06T04:06:02.487Z,10.98
2022-09-06T04:08:29.679Z,11.73
2022-09-06T04:10:57.677Z,11.00
2022-09-06T04:13:25.102Z,10.80
2022-09-06T04:15:52.658Z,11.05
2022-09-06T04:18:20.269Z,10.30
2022-09-06T04:20:51.529Z,10.57
2022-09-06T04:23:18.904Z,11.00
2022-09-06T04:25:50.311Z,11.10
2022-09-06T04:28:18.390Z,10.93
2022-09-06T04:31:04.368Z,11.13
2022-09-06T04:33:33.286Z,11.48
2022-09-06T04:36:02.488Z,10.90
2022-09-06T04:38:30.739Z,11.02
2022-09-06T04:40:57.334Z,11.32
2022-09-06T04:43:24.483Z,11.05
2022-09-06T04:45:51.415Z,10.90
2022-09-06T04:48:18.241Z,11.10
2022-09-06T04:50:44.777Z,10.90
2022-09-06T04:53:11.470Z,10.07
2022-09-06T04:55:38.346Z,10.20
2022-09-06T04:58:05.851Z,10.43
2022-09-06T05:00:34.349Z,10.43
2022-09-06T05:03:00.934Z,10.13
2022-09-06T05:05:27.487Z,10.52
2022-09-06T05:07:54.610Z,10.30
2022-09-06T05:10:22.565Z,9.30
2022-09-06T05:12:49.816Z,10.55
2022-09-06T05:15:17.535Z,10.18
2022-09-06T05:17:44.115Z,9.55
2022-09-06T05:20:11.642Z,9.48
2022-09-06T05:22:39.091Z,10.88
2022-09-06T05:25:06.352Z,10.57
2022-09-06T05:27:32.989Z,10.70
2022-09-06T05:29:59.533Z,10.55
2022-09-06T05:32:26.191Z,9.55
2022-09-06T05:34:53.236Z,9.80
2022-09-06T05:37:19.744Z,9.18
2022-09-06T05:39:46.373Z,9.43
2022-09-06T05:42:17.154Z,9.80
2022-09-06T05:44:45.624Z,9.43
2022-09-06T05:47:12.102Z,8.98
2022-09-06T05:49:38.633Z,9.15
2022-09-06T05:52:05.265Z,9.13
2022-09-06T05:54:32.015Z,8.65
2022-09-06T05:56:58.579Z,8.77
2022-09-06T05:59:25.313Z,8.63
2022-09-06T06:01:53.596Z,8.80
2022-09-06T06:04:22.354Z,8.88
2022-09-06T06:06:49.411Z,9.20
2022-09-06T06:09:16.611Z,9.00
2022-09-06T06:11:43.433Z,9.18
2022-09-06T06:14:10.244Z,9.07
2022-09-06T06:16:37.091Z,8.82
2022-09-06T06:19:03.717Z,9.50
2022-09-06T06:21:32.051Z,9.32
2022-09-06T06:24:03.729Z,9.27
2022-09-06T06:26:33.286Z,8.95
2022-09-06T06:29:02.425Z,8.70
2022-09-06T06:31:30.890Z,8.75
2022-09-06T06:33:58.266Z,9.23
2022-09-06T06:36:27.218Z,8.63
2022-09-06T06:38:55.366Z,9.23
2022-09-06T06:41:24.384Z,9.10
2022-09-06T06:43:55.215Z,8.80
2022-09-06T06:46:24.320Z,8.52
2022-09-06T06:48:54.645Z,8.77
2022-09-06T06:51:32.184Z,8.98
2022-09-06T06:53:58.842Z,8.70
2022-09-06T06:56:28.381Z,9.18
2022-09-06T06:59:00.436Z,9.27
2022-09-06T07:01:29.214Z,9.73
2022-09-06T07:03:56.064Z,9.40
2022-09-06T07:09:09.798Z,9.02
2022-09-06T07:11:36.306Z,9.63
2022-09-06T07:14:02.815Z,8.90
2022-09-06T07:16:30.045Z,8.90
2022-09-06T07:18:56.654Z,9.18
2022-09-06T07:21:42.375Z,8.93
2022-09-06T07:24:09.613Z,8.88
2022-09-06T07:26:38.233Z,9.82
2022-09-06T07:29:06.031Z,8.70
2022-09-06T07:34:21.969Z,9.18
2022-09-06T07:36:48.646Z,9.40
2022-09-06T07:39:15.382Z,8.65
2022-09-06T07:41:43.245Z,9.10
2022-09-06T07:44:10.141Z,9.48
2022-09-06T07:46:36.776Z,9.05
2022-09-06T07:49:06.708Z,8.52
2022-09-06T07:51:33.387Z,9.10
2022-09-06T07:54:29.406Z,8.88
2022-09-06T07:56:47.378Z,8.98
2022-09-06T07:59:14.014Z,9.10
2022-09-06T08:01:41.082Z,9.57
2022-09-06T08:04:12.851Z,9.13
2022-09-06T08:09:27.451Z,8.68
2022-09-06T08:11:53.985Z,8.98
2022-09-06T08:14:20.655Z,8.93
2022-09-06T08:16:47.395Z,8.13
2022-09-06T08:19:14.411Z,8.43
2022-09-06T08:21:41.145Z,8.18
2022-09-06T08:24:12.506Z,8.95
2022-09-06T08:26:40.701Z,8.20
2022-09-06T08:29:09.068Z,8.32
2022-09-06T08:31:38.497Z,8.73
2022-09-06T08:34:05.348Z,7.95
2022-09-06T08:36:32.571Z,8.82
2022-09-06T08:39:04.595Z,8.18
2022-09-06T08:41:48.801Z,8.23
2022-09-06T08:47:20.507Z,7.95
2022-09-06T08:50:03.963Z,8.30
2022-09-06T08:52:49.756Z,7.85
2022-09-06T08:55:37.421Z,8.05
2022-09-06T08:58:28.142Z,7.70
2022-09-06T09:01:13.470Z,8.40
2022-09-06T09:03:43.265Z,7.43
2022-09-06T09:06:10.581Z,8.27
2022-09-06T09:09:06.235Z,7.95
2022-09-06T09:11:35.895Z,7.55
2022-09-06T09:14:17.146Z,8.05
2022-09-06T09:16:44.255Z,7.68
2022-09-06T09:19:10.877Z,7.80
2022-09-06T09:21:40.501Z,7.78
2022-09-06T09:24:12.525Z,8.35
2022-09-06T09:26:53.552Z,7.65
2022-09-06T09:29:25.309Z,7.75
2022-09-06T09:31:55.155Z,7.90
2022-09-06T09:34:36.845Z,6.90
2022-09-06T09:40:27.951Z,7.28
2022-09-06T09:43:09.083Z,7.40
2022-09-06T09:45:35.611Z,7.00
2022-09-06T09:48:21.261Z,7.70
2022-09-06T09:50:48.281Z,6.68
2022-09-06T09:53:18.861Z,6.97
2022-09-06T09:55:46.907Z,7.47
2022-09-06T09:58:33.362Z,6.93
2022-09-06T10:01:21.632Z,7.10
2022-09-06T10:09:50.499Z,6.97
2022-09-06T10:12:28.526Z,6.50
2022-09-06T10:14:55.821Z,7.03
2022-09-06T10:17:33.573Z,6.78
2022-09-06T10:20:12.670Z,6.90
2022-09-06T10:23:05.141Z,6.13
2022-09-06T10:25:34.416Z,6.18
2022-09-06T10:28:19.171Z,6.07
2022-09-06T10:31:24.525Z,6.75
2022-09-06T10:33:56.883Z,6.28
2022-09-06T10:36:52.464Z,6.28
2022-09-06T10:39:33.652Z,5.90
2022-09-06T10:42:19.872Z,6.28
2022-09-06T10:45:14.048Z,6.35
2022-09-06T10:47:59.452Z,5.70
2022-09-06T10:50:41.450Z,5.68
2022-09-06T10:53:16.238Z,6.45
2022-09-06T10:55:47.963Z,6.15
2022-09-06T10:58:25.059Z,5.47
2022-09-06T11:00:55.519Z,6.28
2022-09-06T11:06:28.862Z,6.05
2022-09-06T11:08:58.490Z,5.97
2022-09-06T11:11:40.409Z,6.07
2022-09-06T11:16:45.808Z,6.40
2022-09-06T11:19:21.603Z,6.78
2022-09-06T11:22:11.253Z,6.45
2022-09-06T11:25:02.918Z,6.25
2022-09-06T11:27:42.015Z,6.25
2022-09-06T11:30:15.530Z,5.75
2022-09-06T11:32:50.525Z,5.82
2022-09-06T11:35:29.337Z,5.65
2022-09-06T11:38:14.267Z,5.82
2022-09-06T11:40:43.848Z,6.70
2022-09-06T11:43:17.884Z,6.57
2022-09-06T11:45:44.807Z,6.22
2022-09-06T11:48:23.362Z,6.10
2022-09-06T11:50:59.098Z,6.05
2022-09-06T11:53:35.988Z,6.45
2022-09-06T11:56:02.457Z,5.90
2022-09-06T11:58:36.894Z,5.65
2022-09-06T12:01:12.542Z,5.53
2022-09-06T12:06:33.553Z,5.32
2022-09-06T12:11:30.495Z,5.45
2022-09-06T12:14:27.844Z,5.55
2022-09-06T12:16:57.538Z,5.47
2022-09-06T12:19:44.602Z,5.13
2022-09-06T12:22:29.356Z,5.15
2022-09-06T12:24:59.747Z,5.15
2022-09-06T12:27:39.180Z,5.22
2022-09-06T12:30:12.105Z,5.30
2022-09-06T12:32:48.423Z,5.50
2022-09-06T12:38:14.415Z,5.00
2022-09-06T12:40:45.761Z,5.65
2022-09-06T12:43:15.116Z,5.13
2022-09-06T12:45:50.657Z,5.75
2022-09-06T12:48:28.023Z,5.60
2022-09-06T12:51:09.596Z,5.18
2022-09-06T12:53:36.146Z,5.25
2022-09-06T12:56:08.217Z,5.20
2022-09-06T12:58:35.934Z,5.40
2022-09-06T13:01:27.923Z,5.05
2022-09-06T13:03:58.257Z,5.47
2022-09-06T13:06:27.167Z,5.53
2022-09-06T13:08:56.925Z,5.38
2022-09-06T13:11:28.391Z,5.65
2022-09-06T13:13:55.670Z,5.55
2022-09-06T13:16:28.339Z,5.35
2022-09-06T13:18:55.107Z,5.85
2022-09-06T13:21:32.973Z,5.50
2022-09-06T13:23:59.726Z,5.75
2022-09-06T13:26:40.265Z,5.47
2022-09-06T13:29:29.329Z,5.28
2022-09-06T13:31:58.176Z,5.60
2022-09-06T13:34:27.210Z,4.55
2022-09-06T13:37:00.320Z,4.80
2022-09-06T13:39:35.481Z,5.47
2022-09-06T13:42:07.822Z,5.40
2022-09-06T13:44:39.286Z,5.45
2022-09-06T13:47:06.358Z,5.85
2022-09-06T13:49:33.905Z,5.35
2022-09-06T13:52:02.440Z,5.45
2022-09-06T13:54:30.426Z,5.45
2022-09-06T13:56:57.145Z,4.47
2022-09-06T13:59:24.709Z,5.50
2022-09-06T14:02:02.166Z,5.28
2022-09-06T14:04:29.081Z,5.90
2022-09-06T14:06:55.630Z,5.40
2022-09-06T14:09:22.148Z,5.63
2022-09-06T14:11:48.669Z,5.38
2022-09-06T14:14:16.717Z,5.32
2022-09-06T14:16:43.819Z,5.38
2022-09-06T14:19:10.591Z,5.72
2022-09-06T14:21:37.172Z,5.50
2022-09-06T14:24:04.822Z,5.55
2022-09-06T14:26:31.851Z,5.15
2022-09-06T14:28:58.703Z,5.22
2022-09-06T14:31:28.017Z,5.30
2022-09-06T14:33:56.404Z,5.50
2022-09-06T14:36:26.185Z,5.38
2022-09-06T14:38:53.685Z,5.93
2022-09-06T14:41:21.009Z,5.22
2022-09-06T14:43:53.483Z,5.20
2022-09-06T14:46:21.994Z,5.30
2022-09-06T14:48:49.540Z,5.53
2022-09-06T14:51:21.883Z,5.70
2022-09-06T14:53:51.987Z,5.50
2022-09-06T14:56:19.657Z,5.55
2022-09-06T14:58:46.668Z,5.80
2022-09-06T15:01:19.099Z,5.85
2022-09-06T15:03:51.763Z,5.78
2022-09-06T15:06:21.461Z,5.80
2022-09-06T15:08:48.685Z,5.57
2022-09-06T15:11:27.399Z,5.82
2022-09-06T15:13:53.962Z,6.28
2022-09-06T15:16:21.366Z,5.97
2022-09-06T15:18:48.343Z,6.00
2022-09-06T15:21:17.084Z,5.80
2022-09-06T15:23:43.928Z,5.70
2022-09-06T15:26:12.176Z,5.43
2022-09-06T15:28:40.269Z,5.68
2022-09-06T15:31:08.317Z,6.00
2022-09-06T15:33:36.537Z,5.78
2022-09-06T15:36:08.222Z,6.50
2022-09-06T15:41:24.321Z,5.90
2022-09-06T15:43:53.720Z,6.15
2022-09-06T15:46:40.389Z,5.53
2022-09-06T15:49:09.159Z,6.10
2022-09-06T15:51:37.892Z,5.30
2022-09-06T15:54:05.305Z,5.78
2022-09-06T15:56:32.338Z,5.15
2022-09-06T15:58:58.928Z,5.47
2022-09-06T16:01:26.636Z,5.45
2022-09-06T16:03:55.824Z,5.70
2022-09-06T16:09:01.902Z,5.30
2022-09-06T16:11:30.093Z,5.97
2022-09-06T16:13:56.714Z,5.25
2022-09-06T16:16:23.530Z,5.45
2022-09-06T16:18:52.193Z,5.38
2022-09-06T16:21:21.580Z,5.63
2022-09-06T16:23:54.678Z,5.22
2022-09-06T16:26:22.929Z,5.40
2022-09-06T16:28:51.258Z,5.97
2022-09-06T16:31:19.026Z,5.15
2022-09-06T16:33:45.907Z,5.30
2022-09-06T16:36:14.266Z,5.60
2022-09-06T16:38:41.928Z,5.38
2022-09-06T16:41:10.025Z,5.60
2022-09-06T16:43:36.823Z,5.07
2022-09-06T16:46:04.415Z,5.30
2022-09-06T16:48:31.618Z,5.78
2022-09-06T16:50:58.453Z,5.57
2022-09-06T16:53:25.190Z,5.47
2022-09-06T16:55:51.720Z,5.20
2022-09-06T16:58:18.323Z,5.70
2022-09-06T17:00:45.524Z,5.28
2022-09-06T17:03:14.323Z,5.38
2022-09-06T17:05:41.257Z,5.80
2022-09-06T17:08:08.372Z,5.65
2022-09-06T17:10:38.399Z,5.85
2022-09-06T17:13:04.933Z,5.38
2022-09-06T17:15:51.430Z,5.30
2022-09-06T17:18:17.994Z,6.28
2022-09-06T17:20:55.238Z,5.63
2022-09-06T17:23:21.785Z,5.55
2022-09-06T17:25:48.519Z,5.15
2022-09-06T17:28:15.091Z,5.68
2022-09-06T17:30:41.645Z,5.38
2022-09-06T17:33:08.704Z,5.40
2022-09-06T17:35:35.322Z,5.47
2022-09-06T17:38:02.010Z,6.10
2022-09-06T17:40:28.768Z,5.38
2022-09-06T17:42:55.590Z,5.32
2022-09-06T17:45:22.273Z,5.40
2022-09-06T17:47:49.017Z,5.65
2022-09-06T17:50:15.802Z,5.78
2022-09-06T17:52:42.568Z,4.90
2022-09-06T17:55:09.402Z,5.20
2022-09-06T17:57:36.099Z,4.80
2022-09-06T18:00:03.352Z,5.20
2022-09-06T18:02:29.877Z,5.38
2022-09-06T18:04:56.487Z,5.75
2022-09-06T18:07:23.095Z,5.55
2022-09-06T18:09:49.619Z,5.40
2022-09-06T18:12:17.459Z,5.55
2022-09-06T18:14:43.947Z,5.90
2022-09-06T18:17:10.723Z,6.32
2022-09-06T18:19:38.228Z,6.43
2022-09-06T18:22:04.908Z,6.45
2022-09-06T18:24:31.976Z,6.15
2022-09-06T18:26:58.669Z,6.07
2022-09-06T18:29:25.283Z,6.03
2022-09-06T18:31:54.038Z,5.70
2022-09-06T18:34:21.580Z,5.65
2022-09-06T18:36:48.233Z,6.30
2022-09-06T18:39:14.790Z,5.93
2022-09-06T18:41:59.834Z,5.75
2022-09-06T18:44:32.365Z,5.63
2022-09-06T18:47:01.441Z,5.90
2022-09-06T18:49:28.315Z,6.07
2022-09-06T18:51:55.263Z,6.20
2022-09-06T18:54:21.891Z,6.05
2022-09-06T18:56:50.020Z,6.43
2022-09-06T18:59:17.131Z,6.32
2022-09-06T19:01:44.339Z,6.18
2022-09-06T19:04:11.849Z,6.22
2022-09-06T19:06:40.431Z,6.40
2022-09-06T19:09:09.929Z,6.28
2022-09-06T19:11:36.819Z,6.72
2022-09-06T19:14:04.661Z,7.03
2022-09-06T19:16:31.940Z,6.43
2022-09-06T19:19:07.561Z,5.97
2022-09-06T19:21:37.924Z,6.07
2022-09-06T19:26:37.673Z,6.38
2022-09-06T19:29:07.729Z,6.30
2022-09-06T19:31:36.021Z,6.10
2022-09-06T19:34:02.973Z,5.80
2022-09-06T19:36:30.107Z,6.07
2022-09-06T19:39:03.413Z,6.68
2022-09-06T19:41:33.229Z,6.43
2022-09-06T19:44:00.205Z,5.93
2022-09-06T19:46:27.642Z,6.32
2022-09-06T19:48:56.105Z,5.88
2022-09-06T19:51:24.268Z,6.10
2022-09-06T19:53:59.805Z,5.88
2022-09-06T19:56:33.714Z,6.45
2022-09-06T19:59:03.148Z,6.28
2022-09-06T20:01:31.576Z,6.18
2022-09-06T20:03:59.876Z,6.38
2022-09-06T20:06:27.353Z,6.53
2022-09-06T20:08:57.191Z,6.15
2022-09-06T20:11:26.424Z,6.60
2022-09-06T20:13:53.019Z,6.38
2022-09-06T20:16:21.218Z,6.03
2022-09-06T20:18:48.515Z,6.30
2022-09-06T20:21:17.798Z,6.10
2022-09-06T20:23:49.417Z,5.88
2022-09-06T20:26:16.907Z,6.18
2022-09-06T20:28:44.145Z,6.05
2022-09-06T20:31:14.096Z,6.07
2022-09-06T20:33:40.748Z,6.07
2022-09-06T20:36:10.014Z,5.95
2022-09-06T20:38:38.994Z,6.20
2022-09-06T20:41:08.028Z,7.45
2022-09-06T20:43:39.520Z,5.88
2022-09-06T20:46:15.244Z,6.30
2022-09-06T20:48:44.905Z,6.22
2022-09-06T20:51:19.925Z,6.18
2022-09-06T20:53:48.604Z,6.10
2022-09-06T20:56:18.152Z,6.18
2022-09-06T20:58:52.900Z,5.90
2022-09-06T21:01:23.348Z,5.88
2022-09-06T21:03:58.308Z,6.00
2022-09-06T21:06:26.652Z,5.65
2022-09-06T21:08:53.282Z,5.82
2022-09-06T21:11:20.146Z,5.38
2022-09-06T21:13:56.575Z,6.15
2022-09-06T21:16:25.633Z,5.63
2022-09-06T21:18:57.227Z,5.53
2022-09-06T21:21:25.504Z,5.10
2022-09-06T21:23:52.799Z,5.28
2022-09-06T21:26:19.490Z,5.22
2022-09-06T21:28:47.708Z,5.40
2022-09-06T21:31:17.169Z,5.30
2022-09-06T21:33:46.461Z,4.75
2022-09-06T21:36:15.700Z,4.97
2022-09-06T21:38:45.453Z,5.05
2022-09-06T21:41:14.243Z,5.10
2022-09-06T21:43:41.299Z,4.60
2022-09-06T21:46:14.487Z,4.97
2022-09-06T21:48:43.812Z,5.38
2022-09-06T21:51:15.254Z,4.70
2022-09-06T21:53:43.570Z,5.30
2022-09-06T21:56:10.756Z,4.88
2022-09-06T21:58:37.997Z,4.95
2022-09-06T22:01:05.571Z,4.72
2022-09-06T22:03:35.315Z,4.90
2022-09-06T22:06:12.901Z,4.68
2022-09-06T22:08:41.774Z,4.80
2022-09-06T22:11:29.609Z,5.05
2022-09-06T22:14:05.745Z,5.30
2022-09-06T22:16:35.402Z,5.15
2022-09-06T22:19:04.753Z,5.10
2022-09-06T22:21:32.359Z,5.45
2022-09-06T22:24:05.296Z,5.40
2022-09-06T22:26:34.927Z,5.32
2022-09-06T22:29:06.762Z,5.20
2022-09-06T22:34:00.930Z,4.65
2022-09-06T22:36:28.176Z,4.78
2022-09-06T22:38:58.570Z,4.78
2022-09-06T22:41:27.222Z,5.00
2022-09-06T22:43:54.105Z,4.60
2022-09-06T22:46:20.725Z,3.58
2022-09-06T22:48:47.349Z,3.92
2022-09-06T22:51:13.868Z,3.30
2022-09-06T22:53:40.555Z,3.70
2022-09-06T22:56:07.227Z,3.42
2022-09-06T22:58:35.343Z,3.40
2022-09-06T23:01:13.426Z,3.38
2022-09-06T23:03:41.973Z,3.58
2022-09-06T23:06:08.821Z,3.50
2022-09-06T23:08:37.987Z,3.70
2022-09-06T23:11:13.342Z,3.60
2022-09-06T23:13:43.752Z,3.15
2022-09-06T23:16:17.263Z,3.17
2022-09-06T23:18:44.697Z,3.45
2022-09-06T23:21:14.118Z,3.60
2022-09-06T23:23:41.620Z,3.45
2022-09-06T23:26:14.115Z,3.95
2022-09-06T23:28:41.284Z,3.42
2022-09-06T23:31:11.036Z,3.72
2022-09-06T23:33:37.953Z,3.65
2022-09-06T23:36:06.339Z,3.80
2022-09-06T23:38:34.246Z,3.97
2022-09-06T23:41:01.490Z,3.83
2022-09-06T23:43:28.792Z,3.78
2022-09-06T23:45:55.779Z,3.60
2022-09-06T23:48:22.348Z,4.18
2022-09-06T23:50:49.206Z,3.85
2022-09-06T23:53:17.733Z,3.70
2022-09-06T23:55:45.078Z,4.28
2022-09-06T23:58:12.094Z,4.60
